Time;durP1;ratioP1;P1;durP2;ratioP2;P2;SDS_P1;SDS_P2;PMS_P1;PMS_P2;Temp;Humidity;BMP_temperature;BMP_pressure;BME280_temperature;BME280_humidity;BME280_pressure;Samples;Min_cycle;Max_cycle;Signal;HPM_P1;HPM_P2
2023/01/15 00:01:30;;;;;;;;;;;7.00;99.90;;;;;;5133460;28;20014;-41
2023/01/15 00:03:57;;;;;;;;;;;7.00;99.90;;;;;;5133220;28;19914;-41
2023/01/15 00:06:23;;;;;;;;;;;7.00;99.90;;;;;;5132636;28;19960;-41
2023/01/15 00:08:49;;;;;;;;;;;7.00;99.90;;;;;;5133232;28;19912;-41
2023/01/15 00:11:15;;;;;;;;;;;7.00;99.90;;;;;;5134711;27;19994;-42
2023/01/15 00:13:41;;;;;;;;;;;7.00;99.90;;;;;;5146551;27;19911;-41
2023/01/15 00:16:08;;;;;;;;;;;7.00;99.90;;;;;;5157421;27;19963;-41
2023/01/15 00:18:33;;;;;;;;;;;7.00;99.90;;;;;;5145934;27;19979;-41
2023/01/15 00:21:03;;;;;;;;;;;7.00;99.90;;;;;;5137880;27;19975;-42
2023/01/15 00:28:59;;;;;;;;;;;7.00;99.90;;;;;;5157402;27;19967;-41
2023/01/15 00:31:24;;;;;;;;;;;7.00;99.90;;;;;;5157314;27;19911;-41
2023/01/15 00:33:50;;;;;;;;;;;7.00;99.90;;;;;;5156256;27;19919;-42
2023/01/15 00:36:16;;;;;;;;;;;7.00;99.90;;;;;;5155707;27;19915;-41
2023/01/15 00:38:41;;;;;;;;;;;7.00;99.90;;;;;;5151804;27;19941;-42
2023/01/15 00:41:07;;;;;;;;;;;7.00;99.90;;;;;;5145434;27;20362;-42
2023/01/15 00:43:32;;;;;;;;;;;7.00;99.90;;;;;;5151394;27;19964;-41
2023/01/15 00:45:58;;;;;;;;;;;7.00;99.90;;;;;;5136655;27;19908;-42
2023/01/15 00:48:23;;;;;;;;;;;7.00;99.90;;;;;;5135799;27;20315;-41
2023/01/15 00:50:48;;;;;;;;;;;7.00;99.90;;;;;;5136383;27;19919;-42
2023/01/15 00:53:14;;;;;;;;;;;7.00;99.90;;;;;;5136265;27;19918;-42
2023/01/15 00:55:40;;;;;;;;;;;7.00;99.90;;;;;;5142278;27;20327;-42
2023/01/15 00:58:05;;;;;;;;;;;7.00;99.90;;;;;;5155954;27;20009;-41
2023/01/15 01:00:31;;;;;;;;;;;7.00;99.90;;;;;;5155971;27;19919;-42
2023/01/15 01:02:56;;;;;;;;;;;7.00;99.90;;;;;;5142091;27;19912;-42
2023/01/15 01:05:22;;;;;;;;;;;7.00;99.90;;;;;;5131621;27;20288;-42
2023/01/15 01:07:47;;;;;;;;;;;7.00;99.90;;;;;;5155850;27;19911;-42
2023/01/15 01:10:13;;;;;;;;;;;7.00;99.90;;;;;;5149083;27;19919;-43
2023/01/15 01:12:38;;;;;;;;;;;7.10;99.90;;;;;;5155686;27;19915;-41
2023/01/15 01:15:04;;;;;;;;;;;7.10;99.90;;;;;;5149127;27;19912;-42
2023/01/15 01:17:29;;;;;;;;;;;7.10;99.90;;;;;;5135873;27;20404;-40
2023/01/15 01:19:55;;;;;;;;;;;7.10;99.90;;;;;;5139664;27;19918;-41
2023/01/15 01:22:20;;;;;;;;;;;7.10;99.90;;;;;;5133997;27;19915;-41
2023/01/15 01:24:46;;;;;;;;;;;7.10;99.90;;;;;;5151529;27;20422;-42
2023/01/15 01:27:11;;;;;;;;;;;7.00;99.90;;;;;;5154222;27;19920;-41
2023/01/15 01:29:37;;;;;;;;;;;7.00;99.90;;;;;;5155078;27;19934;-41
2023/01/15 01:32:02;;;;;;;;;;;7.00;99.90;;;;;;5148276;27;19918;-42
2023/01/15 01:34:28;;;;;;;;;;;7.00;99.90;;;;;;5148638;27;19919;-41
2023/01/15 01:36:53;;;;;;;;;;;7.00;99.90;;;;;;5147913;27;19917;-41
2023/01/15 01:39:19;;;;;;;;;;;7.10;99.90;;;;;;5145993;27;20357;-42
2023/01/15 01:41:45;;;;;;;;;;;7.00;99.90;;;;;;5153880;27;19964;-41
2023/01/15 01:44:29;;;;;;;;;;;7.10;99.90;;;;;;5154508;27;19918;-42
2023/01/15 01:46:55;;;;;;;;;;;7.10;99.90;;;;;;5156005;27;19947;-42
2023/01/15 01:49:20;;;;;;;;;;;7.10;99.90;;;;;;5146283;27;19950;-42
2023/01/15 01:51:49;;;;;;;;;;;7.00;99.90;;;;;;5154977;27;19911;-42
2023/01/15 01:54:16;;;;;;;;;;;7.00;99.90;;;;;;5155468;27;20450;-42
2023/01/15 01:56:42;;;;;;;;;;;7.00;99.90;;;;;;5154737;27;19950;-41
2023/01/15 01:59:07;;;;;;;;;;;7.00;99.90;;;;;;5141931;27;20314;-41
2023/01/15 02:01:33;;;;;;;;;;;7.00;99.90;;;;;;5132999;27;19912;-42
2023/01/15 02:03:58;;;;;;;;;;;7.00;99.90;;;;;;5122550;27;19919;-41
2023/01/15 02:06:25;;;;;;;;;;;7.00;99.90;;;;;;5117324;27;19914;-42
2023/01/15 02:08:50;;;;;;;;;;;7.10;99.90;;;;;;5150187;27;19911;-41
2023/01/15 02:11:17;;;;;;;;;;;7.00;99.90;;;;;;5146476;27;19915;-42
2023/01/15 02:13:49;;;;;;;;;;;7.00;99.90;;;;;;5134803;27;19915;-41
2023/01/15 02:16:17;;;;;;;;;;;7.00;99.90;;;;;;5136099;27;19922;-42
2023/01/15 02:18:55;;;;;;;;;;;7.00;99.90;;;;;;5154121;27;19926;-41
2023/01/15 02:21:29;;;;;;;;;;;7.00;99.90;;;;;;5153024;27;19911;-40
2023/01/15 02:24:21;;;;;;;;;;;7.00;99.90;;;;;;5144957;27;19919;-41
2023/01/15 02:26:55;;;;;;;;;;;7.00;99.90;;;;;;5133776;27;19979;-41
2023/01/15 02:29:41;;;;;;;;;;;7.00;99.90;;;;;;5149905;27;19918;-42
2023/01/15 02:32:09;;;;;;;;;;;7.00;99.90;;;;;;5151790;27;19922;-41
2023/01/15 02:34:39;;;;;;;;;;;7.00;99.90;;;;;;5140285;27;20354;-41
2023/01/15 02:37:17;;;;;;;;;;;7.00;99.90;;;;;;5149517;27;19915;-41
2023/01/15 02:39:43;;;;;;;;;;;7.00;99.90;;;;;;5132719;27;19998;-42
2023/01/15 02:42:09;;;;;;;;;;;7.00;99.90;;;;;;5149390;27;19915;-41
2023/01/15 02:44:37;;;;;;;;;;;7.00;99.90;;;;;;5137066;27;19919;-43
2023/01/15 02:47:03;;;;;;;;;;;7.00;99.90;;;;;;5153858;27;19971;-41
2023/01/15 02:49:31;;;;;;;;;;;7.00;99.90;;;;;;5144821;27;20024;-42
2023/01/15 02:52:02;;;;;;;;;;;7.00;99.90;;;;;;5134123;27;19908;-41
2023/01/15 02:54:29;;;;;;;;;;;7.00;99.90;;;;;;5132985;27;19916;-42
2023/01/15 02:56:56;;;;;;;;;;;7.00;99.90;;;;;;5133876;27;19918;-41
2023/01/15 02:59:28;;;;;;;;;;;7.00;99.90;;;;;;5137315;27;19915;-40
2023/01/15 03:01:59;;;;;;;;;;;7.00;99.90;;;;;;5153549;27;20361;-41
2023/01/15 03:04:31;;;;;;;;;;;6.90;99.90;;;;;;5154437;27;19911;-42
2023/01/15 03:07:19;;;;;;;;;;;6.90;99.90;;;;;;5154741;27;20381;-41
2023/01/15 03:09:46;;;;;;;;;;;7.00;99.90;;;;;;5075691;27;19946;-41
2023/01/15 03:12:16;;;;;;;;;;;7.00;99.90;;;;;;5148480;27;19915;-41
2023/01/15 03:14:42;;;;;;;;;;;7.00;99.90;;;;;;5153350;27;19915;-42
2023/01/15 03:17:13;;;;;;;;;;;7.00;99.90;;;;;;5152426;27;19919;-43
2023/01/15 03:19:38;;;;;;;;;;;6.90;99.90;;;;;;5139741;27;19915;-41
2023/01/15 03:22:07;;;;;;;;;;;6.90;99.90;;;;;;5153542;27;19907;-42
2023/01/15 03:24:38;;;;;;;;;;;7.00;99.90;;;;;;5145210;27;19919;-42
2023/01/15 03:27:03;;;;;;;;;;;7.00;99.90;;;;;;5134600;27;19933;-42
2023/01/15 03:29:34;;;;;;;;;;;6.90;99.90;;;;;;5136878;27;20347;-42
2023/01/15 03:31:59;;;;;;;;;;;6.90;99.90;;;;;;5153576;27;19914;-41
2023/01/15 03:34:27;;;;;;;;;;;6.90;99.90;;;;;;5153993;27;20392;-41
2023/01/15 03:36:53;;;;;;;;;;;7.00;99.90;;;;;;5145292;27;19911;-42
2023/01/15 03:39:18;;;;;;;;;;;7.00;99.90;;;;;;5144269;27;20002;-42
2023/01/15 03:41:47;;;;;;;;;;;6.90;99.90;;;;;;5140861;27;19919;-43
2023/01/15 03:44:31;;;;;;;;;;;6.90;99.90;;;;;;5133425;27;19911;-41
2023/01/15 03:47:00;;;;;;;;;;;6.90;99.90;;;;;;5150292;27;19911;-41
2023/01/15 03:49:40;;;;;;;;;;;6.90;99.90;;;;;;5136564;27;20335;-42
2023/01/15 03:52:05;;;;;;;;;;;6.90;99.90;;;;;;5137320;27;19968;-42
2023/01/15 03:54:49;;;;;;;;;;;6.90;99.90;;;;;;5137312;27;19919;-41
2023/01/15 03:57:27;;;;;;;;;;;6.80;99.90;;;;;;5136650;27;19919;-43
2023/01/15 03:59:55;;;;;;;;;;;6.80;99.90;;;;;;5137392;27;19912;-42
2023/01/15 04:02:22;;;;;;;;;;;6.80;99.90;;;;;;5152254;27;19911;-42
2023/01/15 04:04:49;;;;;;;;;;;6.80;99.90;;;;;;5138685;27;20415;-43
2023/01/15 04:07:14;;;;;;;;;;;6.80;99.90;;;;;;5137328;27;20006;-42
2023/01/15 04:09:40;;;;;;;;;;;6.80;99.90;;;;;;5137541;27;20338;-42
2023/01/15 04:12:06;;;;;;;;;;;6.80;99.90;;;;;;5150063;27;19911;-42
2023/01/15 04:14:32;;;;;;;;;;;6.70;99.90;;;;;;5157616;27;19918;-41
2023/01/15 04:16:57;;;;;;;;;;;6.70;99.90;;;;;;5157812;27;19994;-41
2023/01/15 04:19:23;;;;;;;;;;;6.70;99.90;;;;;;5153130;27;19998;-42
2023/01/15 04:21:48;;;;;;;;;;;6.70;99.90;;;;;;5137786;27;20036;-42
2023/01/15 04:24:14;;;;;;;;;;;6.70;99.90;;;;;;5136600;27;20319;-42
2023/01/15 04:26:39;;;;;;;;;;;6.70;99.90;;;;;;5136294;27;19915;-42
2023/01/15 04:29:04;;;;;;;;;;;6.70;99.90;;;;;;5136661;27;19963;-44
2023/01/15 04:31:32;;;;;;;;;;;6.70;99.90;;;;;;5136046;27;20362;-42
2023/01/15 04:33:58;;;;;;;;;;;6.60;99.90;;;;;;5135864;27;19911;-42
2023/01/15 04:36:23;;;;;;;;;;;6.60;99.90;;;;;;5136828;27;20303;-42
2023/01/15 04:38:49;;;;;;;;;;;6.60;99.90;;;;;;5137276;27;20327;-41
2023/01/15 04:44:07;;;;;;;;;;;6.60;99.90;;;;;;5140045;27;20266;-43
2023/01/15 04:46:33;;;;;;;;;;;6.60;99.90;;;;;;5156814;27;19908;-42
2023/01/15 04:48:58;;;;;;;;;;;6.60;99.90;;;;;;5156755;27;20350;-43
2023/01/15 04:51:24;;;;;;;;;;;6.60;99.90;;;;;;5157200;27;20280;-42
2023/01/15 04:53:49;;;;;;;;;;;6.60;99.90;;;;;;5155592;27;19914;-42
2023/01/15 04:56:15;;;;;;;;;;;6.60;99.90;;;;;;5156418;27;20010;-43
2023/01/15 04:58:40;;;;;;;;;;;6.50;99.90;;;;;;5156581;27;19919;-43
2023/01/15 05:01:09;;;;;;;;;;;6.50;99.90;;;;;;5155688;27;19911;-42
2023/01/15 05:03:35;;;;;;;;;;;6.60;99.90;;;;;;5156526;27;20035;-42
2023/01/15 05:06:01;;;;;;;;;;;6.60;99.90;;;;;;5140532;27;20362;-43
2023/01/15 05:08:27;;;;;;;;;;;6.50;99.90;;;;;;5151195;27;19918;-42
2023/01/15 05:10:52;;;;;;;;;;;6.60;99.90;;;;;;5156395;27;19911;-42
2023/01/15 05:13:18;;;;;;;;;;;6.50;99.90;;;;;;5149502;27;19915;-42
2023/01/15 05:15:45;;;;;;;;;;;6.50;99.90;;;;;;5155613;27;20282;-42
2023/01/15 05:18:13;;;;;;;;;;;6.50;99.90;;;;;;5156693;27;19922;-43
2023/01/15 05:20:42;;;;;;;;;;;6.50;99.90;;;;;;5140959;27;19979;-42
2023/01/15 05:23:07;;;;;;;;;;;6.40;99.90;;;;;;5148517;27;20052;-42
2023/01/15 05:25:35;;;;;;;;;;;6.40;99.90;;;;;;5156135;27;19952;-42
2023/01/15 05:28:00;;;;;;;;;;;6.40;99.90;;;;;;5155673;27;19911;-42
2023/01/15 05:30:26;;;;;;;;;;;6.40;99.90;;;;;;5154434;27;19918;-43
2023/01/15 05:32:51;;;;;;;;;;;6.40;99.90;;;;;;5155891;27;19911;-43
2023/01/15 05:35:17;;;;;;;;;;;6.40;99.90;;;;;;5155326;27;20259;-42
2023/01/15 05:37:42;;;;;;;;;;;6.30;99.90;;;;;;5146619;27;20392;-43
2023/01/15 05:40:08;;;;;;;;;;;6.30;99.90;;;;;;5142406;27;19998;-41
2023/01/15 05:42:33;;;;;;;;;;;6.30;99.90;;;;;;5147515;27;19979;-43
2023/01/15 05:44:59;;;;;;;;;;;6.30;99.90;;;;;;5151091;27;20292;-42
2023/01/15 05:47:24;;;;;;;;;;;6.30;99.90;;;;;;5135216;27;19919;-42
2023/01/15 05:49:50;;;;;;;;;;;6.30;99.90;;;;;;5144479;27;20372;-42
2023/01/15 05:52:15;;;;;;;;;;;6.30;99.90;;;;;;5156033;27;19907;-43
2023/01/15 05:54:41;;;;;;;;;;;6.30;99.90;;;;;;5155320;27;20276;-43
2023/01/15 05:57:09;;;;;;;;;;;6.30;99.90;;;;;;5154470;27;19922;-43
2023/01/15 05:59:35;;;;;;;;;;;6.30;99.90;;;;;;5155274;27;19919;-42
2023/01/15 06:02:00;;;;;;;;;;;6.30;99.90;;;;;;5138467;27;19911;-43
2023/01/15 06:04:26;;;;;;;;;;;6.30;99.90;;;;;;5154718;27;19998;-43
2023/01/15 06:06:52;;;;;;;;;;;6.30;99.90;;;;;;5153991;27;20277;-43
2023/01/15 06:09:18;;;;;;;;;;;6.30;99.90;;;;;;5154255;27;19987;-42
2023/01/15 06:11:44;;;;;;;;;;;6.30;99.90;;;;;;5154177;27;19973;-42
2023/01/15 06:14:10;;;;;;;;;;;6.20;99.90;;;;;;5155010;27;19915;-41
2023/01/15 06:16:35;;;;;;;;;;;6.20;99.90;;;;;;5153537;27;19919;-43
2023/01/15 06:19:03;;;;;;;;;;;6.20;99.90;;;;;;5135634;27;19942;-42
2023/01/15 06:21:28;;;;;;;;;;;6.20;99.90;;;;;;5134646;27;20393;-43
2023/01/15 06:23:54;;;;;;;;;;;6.20;99.90;;;;;;5136807;27;19954;-43
2023/01/15 06:26:19;;;;;;;;;;;6.20;99.90;;;;;;5154271;27;19995;-44
2023/01/15 06:28:45;;;;;;;;;;;6.20;99.90;;;;;;5154997;27;19943;-43
2023/01/15 06:31:12;;;;;;;;;;;6.20;99.90;;;;;;5153905;27;19946;-43
2023/01/15 06:33:38;;;;;;;;;;;6.10;99.90;;;;;;5154905;27;19918;-43
2023/01/15 06:36:04;;;;;;;;;;;6.00;99.90;;;;;;5155110;27;19907;-43
2023/01/15 06:38:30;;;;;;;;;;;6.00;99.90;;;;;;5137717;27;19924;-43
2023/01/15 06:40:57;;;;;;;;;;;6.00;99.90;;;;;;5153513;27;19911;-43
2023/01/15 06:49:01;;;;;;;;;;;5.90;99.90;;;;;;5134458;27;19984;-44
2023/01/15 06:51:26;;;;;;;;;;;5.80;99.90;;;;;;5134770;27;20366;-44
2023/01/15 06:53:52;;;;;;;;;;;5.80;99.90;;;;;;5133038;27;19918;-43
2023/01/15 06:56:18;;;;;;;;;;;5.80;99.90;;;;;;5133686;27;19927;-45
2023/01/15 06:58:43;;;;;;;;;;;5.80;99.90;;;;;;5133833;27;19919;-43
2023/01/15 07:01:09;;;;;;;;;;;5.80;99.90;;;;;;5133203;27;19942;-44
2023/01/15 07:03:35;;;;;;;;;;;5.80;99.90;;;;;;5133906;27;19907;-45
2023/01/15 07:06:04;;;;;;;;;;;5.80;99.90;;;;;;5133856;27;19908;-43
2023/01/15 07:08:29;;;;;;;;;;;5.80;99.90;;;;;;5149348;27;19959;-44
2023/01/15 07:10:55;;;;;;;;;;;5.70;99.90;;;;;;5150814;27;19916;-44
2023/01/15 07:13:20;;;;;;;;;;;5.70;99.90;;;;;;5132926;27;19912;-44
2023/01/15 07:15:46;;;;;;;;;;;5.70;99.90;;;;;;5134978;27;20052;-43
2023/01/15 07:18:11;;;;;;;;;;;5.70;99.90;;;;;;5150852;27;20172;-43
2023/01/15 07:20:37;;;;;;;;;;;5.70;99.90;;;;;;5153336;27;20430;-43
2023/01/15 07:23:02;;;;;;;;;;;5.70;99.90;;;;;;5138317;27;19918;-44
2023/01/15 07:25:28;;;;;;;;;;;5.70;99.90;;;;;;5125048;27;19911;-43
2023/01/15 07:27:53;;;;;;;;;;;5.70;99.90;;;;;;5122287;27;19985;-43
2023/01/15 07:30:19;;;;;;;;;;;5.70;99.90;;;;;;5126890;27;20011;-44
2023/01/15 07:32:44;;;;;;;;;;;5.70;99.90;;;;;;5123760;28;19912;-45
2023/01/15 07:35:10;;;;;;;;;;;5.80;99.90;;;;;;5119402;27;19923;-43
2023/01/15 07:37:36;;;;;;;;;;;5.80;99.90;;;;;;5134601;27;19960;-44
2023/01/15 07:40:02;;;;;;;;;;;5.80;99.90;;;;;;5117716;27;19916;-44
2023/01/15 07:50:40;;;;;;;;;;;5.70;99.90;;;;;;5132823;27;19922;-43
2023/01/15 07:53:06;;;;;;;;;;;5.70;99.90;;;;;;5133228;27;19911;-43
2023/01/15 07:55:33;;;;;;;;;;;5.70;99.90;;;;;;5130190;28;19919;-45
2023/01/15 07:57:58;;;;;;;;;;;5.70;99.90;;;;;;5130838;28;19923;-44
2023/01/15 08:00:24;;;;;;;;;;;5.60;99.90;;;;;;5133740;27;19911;-44
2023/01/15 08:02:49;;;;;;;;;;;5.60;99.90;;;;;;5130383;28;19911;-44
2023/01/15 08:05:15;;;;;;;;;;;5.50;99.90;;;;;;5131086;28;19914;-43
2023/01/15 08:07:41;;;;;;;;;;;5.60;99.90;;;;;;5131363;28;19961;-45
2023/01/15 08:10:11;;;;;;;;;;;5.50;99.90;;;;;;5129498;27;19939;-44
2023/01/15 08:15:20;;;;;;;;;;;5.50;99.90;;;;;;5132083;27;19923;-46
2023/01/15 08:17:47;;;;;;;;;;;5.50;99.90;;;;;;5133214;27;19919;-44
2023/01/15 08:20:22;;;;;;;;;;;5.50;99.90;;;;;;5131053;28;20388;-44
2023/01/15 08:22:48;;;;;;;;;;;5.60;99.90;;;;;;5132070;27;19942;-44
2023/01/15 08:25:15;;;;;;;;;;;5.60;99.90;;;;;;5141638;27;19926;-45
2023/01/15 08:27:41;;;;;;;;;;;5.70;99.90;;;;;;5135027;27;19911;-45
2023/01/15 08:30:08;;;;;;;;;;;5.70;99.90;;;;;;5132852;28;20273;-45
2023/01/15 08:32:34;;;;;;;;;;;5.70;99.90;;;;;;5134643;27;19951;-44
2023/01/15 08:34:59;;;;;;;;;;;5.70;99.90;;;;;;5136787;27;19911;-44
2023/01/15 08:37:25;;;;;;;;;;;5.80;99.90;;;;;;5132455;27;19927;-44
2023/01/15 08:39:52;;;;;;;;;;;5.80;99.90;;;;;;5140754;27;20002;-43
2023/01/15 08:42:20;;;;;;;;;;;5.70;99.90;;;;;;5136522;27;19964;-44
2023/01/15 08:44:46;;;;;;;;;;;5.80;99.90;;;;;;5135850;27;20370;-45
2023/01/15 08:47:11;;;;;;;;;;;5.80;99.90;;;;;;5141182;27;19918;-43
2023/01/15 08:49:37;;;;;;;;;;;5.90;99.90;;;;;;5142874;27;19911;-44
2023/01/15 08:52:03;;;;;;;;;;;5.90;99.90;;;;;;5135652;27;20277;-43
2023/01/15 08:54:28;;;;;;;;;;;6.00;99.90;;;;;;5135902;27;20298;-43
2023/01/15 08:56:54;;;;;;;;;;;6.10;99.90;;;;;;5136226;27;19908;-46
2023/01/15 08:59:19;;;;;;;;;;;6.20;99.90;;;;;;5135219;27;20007;-42
2023/01/15 09:01:47;;;;;;;;;;;6.20;99.90;;;;;;5129194;27;20309;-43
2023/01/15 09:04:13;;;;;;;;;;;6.30;99.90;;;;;;5115514;28;20345;-43
2023/01/15 09:06:39;;;;;;;;;;;6.30;99.90;;;;;;5122397;27;19908;-43
2023/01/15 09:09:04;;;;;;;;;;;6.20;99.90;;;;;;5135668;27;19929;-45
2023/01/15 09:11:30;;;;;;;;;;;6.20;99.90;;;;;;5134928;27;19918;-51
2023/01/15 09:13:55;;;;;;;;;;;6.10;99.90;;;;;;5134325;27;20055;-45
2023/01/15 09:16:21;;;;;;;;;;;5.90;99.90;;;;;;5135019;27;20318;-46
2023/01/15 09:18:46;;;;;;;;;;;5.50;99.90;;;;;;5135033;27;19923;-43
2023/01/15 09:21:12;;;;;;;;;;;5.10;99.90;;;;;;5122144;27;19908;-43
2023/01/15 09:23:37;;;;;;;;;;;4.90;99.90;;;;;;5115252;28;19916;-42
2023/01/15 09:26:05;;;;;;;;;;;4.80;99.90;;;;;;5115057;28;19914;-42
2023/01/15 09:28:30;;;;;;;;;;;4.80;99.90;;;;;;5120418;27;20019;-41
2023/01/15 09:30:56;;;;;;;;;;;4.70;99.90;;;;;;5123181;27;20006;-41
2023/01/15 09:33:21;;;;;;;;;;;4.60;99.90;;;;;;5123064;27;19912;-43
2023/01/15 09:35:47;;;;;;;;;;;4.50;99.90;;;;;;5134074;27;19911;-40
2023/01/15 09:38:13;;;;;;;;;;;4.50;99.90;;;;;;5135350;27;19919;-41
2023/01/15 09:40:48;;;;;;;;;;;4.50;99.90;;;;;;5135520;27;19907;-42
2023/01/15 09:43:19;;;;;;;;;;;4.60;99.90;;;;;;5117988;27;19966;-43
2023/01/15 09:45:58;;;;;;;;;;;4.60;99.90;;;;;;5125401;27;20020;-42
2023/01/15 09:48:40;;;;;;;;;;;4.60;99.90;;;;;;5114189;28;19908;-42
2023/01/15 09:51:09;;;;;;;;;;;4.70;99.90;;;;;;5114618;28;19915;-42
2023/01/15 09:53:37;;;;;;;;;;;4.70;99.90;;;;;;5114495;28;20003;-42
2023/01/15 09:56:03;;;;;;;;;;;4.80;99.90;;;;;;5113571;28;19923;-43
2023/01/15 09:58:36;;;;;;;;;;;4.80;99.90;;;;;;5114493;28;19962;-42
2023/01/15 10:01:02;;;;;;;;;;;4.90;99.90;;;;;;5113676;28;20396;-41
2023/01/15 10:03:34;;;;;;;;;;;4.90;99.90;;;;;;5121964;27;19919;-42
2023/01/15 10:06:05;;;;;;;;;;;5.00;99.90;;;;;;5133955;27;19915;-43
2023/01/15 10:08:57;;;;;;;;;;;4.90;99.90;;;;;;5118431;27;19926;-43
2023/01/15 10:14:31;;;;;;;;;;;5.00;99.90;;;;;;5133559;27;19954;-43
2023/01/15 10:16:57;;;;;;;;;;;5.10;99.90;;;;;;5133274;27;19908;-42
2023/01/15 10:19:22;;;;;;;;;;;5.20;99.90;;;;;;5133425;27;19924;-43
2023/01/15 10:21:53;;;;;;;;;;;5.20;99.90;;;;;;5133149;27;20310;-44
2023/01/15 10:24:33;;;;;;;;;;;5.30;99.90;;;;;;5132355;27;20002;-43
2023/01/15 10:26:58;;;;;;;;;;;5.30;99.90;;;;;;5149665;27;19913;-43
2023/01/15 10:29:37;;;;;;;;;;;5.30;99.90;;;;;;5155060;27;20485;-43
2023/01/15 10:32:15;;;;;;;;;;;5.40;99.90;;;;;;5125429;27;20343;-46
2023/01/15 10:34:40;;;;;;;;;;;5.40;99.90;;;;;;5114710;28;20292;-44
2023/01/15 10:37:18;;;;;;;;;;;5.40;99.90;;;;;;5113623;28;19908;-44
2023/01/15 10:39:49;;;;;;;;;;;5.40;99.90;;;;;;5114484;28;19959;-42
2023/01/15 10:42:22;;;;;;;;;;;5.30;99.90;;;;;;5114034;28;19912;-40
2023/01/15 10:44:54;;;;;;;;;;;5.20;99.90;;;;;;5112891;28;19908;-41
2023/01/15 10:47:22;;;;;;;;;;;5.10;99.90;;;;;;5113998;28;19912;-42
2023/01/15 10:49:48;;;;;;;;;;;5.00;99.90;;;;;;5114069;28;19934;-42
2023/01/15 10:52:26;;;;;;;;;;;5.00;99.90;;;;;;5112932;28;19933;-42
2023/01/15 10:55:17;;;;;;;;;;;5.00;99.90;;;;;;5112952;28;19920;-41
2023/01/15 10:57:49;;;;;;;;;;;5.10;99.90;;;;;;5095228;28;20341;-43
2023/01/15 11:00:15;;;;;;;;;;;5.10;99.90;;;;;;5112856;28;19916;-43
2023/01/15 11:02:46;;;;;;;;;;;5.30;99.90;;;;;;5116331;27;19961;-42
2023/01/15 11:05:15;;;;;;;;;;;5.30;99.90;;;;;;5122201;27;19949;-43
2023/01/15 11:07:42;;;;;;;;;;;5.30;99.90;;;;;;5119117;27;19918;-42
2023/01/15 11:10:16;;;;;;;;;;;5.40;99.90;;;;;;5124554;27;19957;-42
2023/01/15 11:21:17;;;;;;;;;;;5.90;99.90;;;;;;5110812;27;19969;-40
2023/01/15 11:23:44;;;;;;;;;;;6.20;99.90;;;;;;5154215;27;20361;-41
2023/01/15 11:26:15;;;;;;;;;;;6.30;99.90;;;;;;5154088;27;20361;-42
2023/01/15 11:28:42;;;;;;;;;;;6.40;99.90;;;;;;5153700;27;19918;-40
2023/01/15 11:31:09;;;;;;;;;;;6.40;99.90;;;;;;5154088;27;20289;-42
2023/01/15 11:33:35;;;;;;;;;;;6.40;99.90;;;;;;5153692;27;19907;-42
2023/01/15 11:36:02;;;;;;;;;;;6.40;99.90;;;;;;5154138;27;19911;-43
2023/01/15 11:38:29;;;;;;;;;;;6.30;99.90;;;;;;5154293;27;19915;-42
2023/01/15 11:40:58;;;;;;;;;;;6.40;99.90;;;;;;5153482;27;19907;-41
2023/01/15 11:52:11;;;;;;;;;;;6.70;99.90;;;;;;5127847;28;19942;-43
2023/01/15 11:54:40;;;;;;;;;;;6.70;99.90;;;;;;5119939;28;19927;-43
2023/01/15 11:57:07;;;;;;;;;;;6.70;99.90;;;;;;5117659;28;20339;-43
2023/01/15 11:59:32;;;;;;;;;;;6.80;99.90;;;;;;5121906;28;21133;-43
2023/01/15 12:01:59;;;;;;;;;;;6.90;99.90;;;;;;5126541;28;19912;-42
2023/01/15 12:04:28;;;;;;;;;;;7.00;99.90;;;;;;5132118;28;20286;-43
2023/01/15 12:06:53;;;;;;;;;;;7.00;99.90;;;;;;5134770;27;19908;-42
2023/01/15 12:09:34;;;;;;;;;;;7.00;99.90;;;;;;5135544;27;20008;-42
2023/01/15 12:11:59;;;;;;;;;;;6.90;99.90;;;;;;5134309;27;19907;-43
2023/01/15 12:14:35;;;;;;;;;;;6.80;99.90;;;;;;5121052;27;19912;-41
2023/01/15 12:17:00;;;;;;;;;;;6.80;99.90;;;;;;5121887;27;19912;-44
2023/01/15 12:19:45;;;;;;;;;;;6.80;99.90;;;;;;5115600;28;19916;-44
2023/01/15 12:22:22;;;;;;;;;;;7.00;99.90;;;;;;5115287;28;19990;-44
2023/01/15 12:25:06;;;;;;;;;;;7.10;99.90;;;;;;5116381;28;19914;-43
2023/01/15 12:27:31;;;;;;;;;;;7.10;99.90;;;;;;5116967;28;20023;-43
2023/01/15 12:29:59;;;;;;;;;;;7.20;99.90;;;;;;5116370;28;20015;-43
2023/01/15 12:32:30;;;;;;;;;;;7.20;99.90;;;;;;5117049;28;19908;-43
2023/01/15 12:35:02;;;;;;;;;;;7.20;99.90;;;;;;5116522;28;19908;-44
2023/01/15 12:37:39;;;;;;;;;;;7.10;99.90;;;;;;5115366;28;19915;-41
2023/01/15 12:40:14;;;;;;;;;;;6.90;99.90;;;;;;5115392;28;20296;-42
2023/01/15 12:45:28;;;;;;;;;;;7.00;99.90;;;;;;5117122;27;19934;-42
2023/01/15 12:48:03;;;;;;;;;;;7.20;99.90;;;;;;5124314;27;19908;-42
2023/01/15 12:50:37;;;;;;;;;;;7.30;99.90;;;;;;5115686;28;19933;-43
2023/01/15 12:53:05;;;;;;;;;;;7.40;99.90;;;;;;5116239;28;20003;-43
2023/01/15 12:55:33;;;;;;;;;;;7.40;99.90;;;;;;5153788;27;19923;-42
2023/01/15 12:58:00;;;;;;;;;;;7.50;99.90;;;;;;5146206;27;19919;-42
2023/01/15 13:00:36;;;;;;;;;;;7.40;99.90;;;;;;5134541;27;19911;-43
2023/01/15 13:03:02;;;;;;;;;;;7.40;99.90;;;;;;5142384;27;19912;-42
2023/01/15 13:05:29;;;;;;;;;;;7.40;99.90;;;;;;5145612;27;19980;-41
2023/01/15 13:07:58;;;;;;;;;;;7.40;99.90;;;;;;5136923;27;19912;-42
2023/01/15 13:10:25;;;;;;;;;;;7.40;99.90;;;;;;5128059;27;19911;-42
2023/01/15 13:12:58;;;;;;;;;;;7.40;99.90;;;;;;5131088;27;19915;-42
2023/01/15 13:15:27;;;;;;;;;;;7.30;99.90;;;;;;5136010;27;20350;-44
2023/01/15 13:17:55;;;;;;;;;;;7.20;99.90;;;;;;5135636;27;19915;-43
2023/01/15 13:20:20;;;;;;;;;;;7.10;99.90;;;;;;5135311;27;19907;-46
2023/01/15 13:22:53;;;;;;;;;;;7.00;99.90;;;;;;5135967;27;19975;-48
2023/01/15 13:25:28;;;;;;;;;;;7.10;99.90;;;;;;5135912;27;19998;-44
2023/01/15 13:28:08;;;;;;;;;;;7.10;99.90;;;;;;5135131;27;20002;-49
2023/01/15 13:30:40;;;;;;;;;;;7.20;99.90;;;;;;5135880;27;19908;-51
2023/01/15 13:33:23;;;;;;;;;;;7.20;99.90;;;;;;5134946;27;20315;-46
2023/01/15 13:35:51;;;;;;;;;;;7.10;99.90;;;;;;5135719;27;19908;-45
2023/01/15 13:38:21;;;;;;;;;;;7.10;99.90;;;;;;5135557;27;19916;-47
2023/01/15 13:40:52;;;;;;;;;;;7.10;99.90;;;;;;5134975;27;19915;-46
2023/01/15 13:43:38;;;;;;;;;;;7.10;99.90;;;;;;5135808;27;19930;-46
2023/01/15 13:46:05;;;;;;;;;;;7.10;99.90;;;;;;5135441;27;19938;-45
2023/01/15 13:48:33;;;;;;;;;;;7.00;99.90;;;;;;5134701;27;19918;-45
2023/01/15 13:50:59;;;;;;;;;;;7.00;99.90;;;;;;5135234;27;19924;-49
2023/01/15 13:53:38;;;;;;;;;;;6.90;99.90;;;;;;5135312;27;20278;-46
2023/01/15 13:56:04;;;;;;;;;;;6.80;99.90;;;;;;5134183;27;19924;-45
2023/01/15 13:58:31;;;;;;;;;;;6.80;99.90;;;;;;5135240;27;19916;-47
2023/01/15 14:01:06;;;;;;;;;;;6.80;99.90;;;;;;5134973;27;19911;-47
2023/01/15 14:03:33;;;;;;;;;;;6.90;99.90;;;;;;5135846;27;20002;-46
2023/01/15 14:06:03;;;;;;;;;;;6.80;99.90;;;;;;5117356;27;20015;-43
2023/01/15 14:08:39;;;;;;;;;;;6.90;99.90;;;;;;5129859;27;20311;-43
2023/01/15 14:11:04;;;;;;;;;;;6.80;99.90;;;;;;5134939;27;19907;-45
2023/01/15 14:13:50;;;;;;;;;;;6.80;99.90;;;;;;5129194;27;20270;-46
2023/01/15 14:16:38;;;;;;;;;;;6.60;99.90;;;;;;5128559;27;19907;-47
2023/01/15 14:19:23;;;;;;;;;;;6.00;99.90;;;;;;5134454;27;20405;-44
2023/01/15 14:22:04;;;;;;;;;;;5.30;99.90;;;;;;5114222;28;19994;-48
2023/01/15 14:24:48;;;;;;;;;;;5.00;99.90;;;;;;5105886;28;19914;-47
2023/01/15 14:27:14;;;;;;;;;;;5.00;99.90;;;;;;5132269;27;19912;-47
2023/01/15 14:29:53;;;;;;;;;;;4.90;99.90;;;;;;5116547;27;19918;-45
2023/01/15 14:32:25;;;;;;;;;;;5.00;99.90;;;;;;5120779;27;19922;-45
2023/01/15 14:34:58;;;;;;;;;;;5.00;99.90;;;;;;5125071;27;20510;-46
2023/01/15 14:37:26;;;;;;;;;;;5.10;99.90;;;;;;5133537;27;19911;-47
2023/01/15 14:39:54;;;;;;;;;;;5.00;99.90;;;;;;5122707;27;19980;-47
2023/01/15 14:45:03;;;;;;;;;;;5.10;99.90;;;;;;5114163;27;20384;-48
2023/01/15 14:48:07;;;;;;;;;;;5.20;99.90;;;;;;5113831;28;19916;-48
2023/01/15 14:50:41;;;;;;;;;;;5.30;99.90;;;;;;5039953;28;19913;-52
2023/01/15 14:53:12;;;;;;;;;;;5.20;99.90;;;;;;5056190;28;19955;-45
2023/01/15 14:56:11;;;;;;;;;;;5.20;99.90;;;;;;5088369;28;19923;-48
2023/01/15 14:58:55;;;;;;;;;;;5.30;99.90;;;;;;5078738;27;19946;-47
2023/01/15 15:01:20;;;;;;;;;;;5.30;99.90;;;;;;5134032;27;19915;-51
2023/01/15 15:03:57;;;;;;;;;;;5.30;99.90;;;;;;5133752;27;20310;-46
2023/01/15 15:06:24;;;;;;;;;;;5.30;99.90;;;;;;5132987;27;19914;-48
2023/01/15 15:08:50;;;;;;;;;;;5.30;99.90;;;;;;5125909;27;19922;-47
2023/01/15 15:14:20;;;;;;;;;;;5.40;99.90;;;;;;5130087;27;19918;-47
2023/01/15 15:16:49;;;;;;;;;;;5.50;99.90;;;;;;5133776;27;19907;-46
2023/01/15 15:19:24;;;;;;;;;;;5.50;99.90;;;;;;5132806;27;20225;-45
2023/01/15 15:21:50;;;;;;;;;;;5.60;99.90;;;;;;5133749;27;19907;-46
2023/01/15 15:24:21;;;;;;;;;;;5.60;99.90;;;;;;5126878;27;19915;-47
2023/01/15 15:26:47;;;;;;;;;;;5.60;99.90;;;;;;5132035;27;20335;-45
2023/01/15 15:29:14;;;;;;;;;;;5.60;99.90;;;;;;5128504;27;20010;-48
2023/01/15 15:31:40;;;;;;;;;;;5.60;99.90;;;;;;5113241;28;19907;-45
2023/01/15 15:34:06;;;;;;;;;;;5.70;99.90;;;;;;5116422;28;20362;-50